createdAt,value
2018-09-20T00:01:01.320Z,2.80
2018-09-20T00:03:30.479Z,4.90
2018-09-20T00:05:59.579Z,4.00
2018-09-20T00:08:28.752Z,3.47
2018-09-20T00:10:57.916Z,5.43
2018-09-20T00:13:27.049Z,4.13
2018-09-20T00:15:56.411Z,3.00
2018-09-20T00:18:25.585Z,3.67
2018-09-20T00:20:54.663Z,3.10
2018-09-20T00:23:23.740Z,3.77
2018-09-20T00:25:52.867Z,3.27
2018-09-20T00:28:21.935Z,3.23
2018-09-20T00:30:51.123Z,2.80
2018-09-20T00:33:20.339Z,4.97
2018-09-20T00:35:49.445Z,5.00
2018-09-20T00:38:18.557Z,4.07
2018-09-20T00:40:47.851Z,4.23
2018-09-20T00:43:16.949Z,4.57
2018-09-20T00:45:45.996Z,3.90
2018-09-20T00:48:15.106Z,4.00
2018-09-20T00:50:44.207Z,4.57
2018-09-20T00:53:13.287Z,3.93
2018-09-20T00:55:42.406Z,4.20
2018-09-20T00:58:11.568Z,4.43
2018-09-20T01:00:40.815Z,3.50
2018-09-20T01:03:09.901Z,4.60
2018-09-20T01:05:39.083Z,2.70
2018-09-20T01:08:08.359Z,4.97
2018-09-20T01:10:37.454Z,5.67
2018-09-20T01:13:06.591Z,3.57
2018-09-20T01:15:35.656Z,3.87
2018-09-20T01:18:04.781Z,2.97
2018-09-20T01:20:33.863Z,3.03
2018-09-20T01:23:02.979Z,5.67
2018-09-20T01:25:32.088Z,3.93
2018-09-20T01:28:01.171Z,4.53
2018-09-20T01:30:30.267Z,5.27
2018-09-20T01:32:59.371Z,5.17
2018-09-20T01:35:28.528Z,4.27
2018-09-20T01:37:57.851Z,4.80
2018-09-20T01:40:26.951Z,3.10
2018-09-20T01:42:56.054Z,4.87
2018-09-20T01:45:25.135Z,3.73
2018-09-20T01:47:54.428Z,5.40
2018-09-20T01:50:23.547Z,3.17
2018-09-20T01:52:52.671Z,5.40
2018-09-20T01:55:21.720Z,3.87
2018-09-20T01:57:50.819Z,4.57
2018-09-20T02:00:19.929Z,4.77
2018-09-20T02:02:49.023Z,3.67
2018-09-20T02:05:18.863Z,3.03
2018-09-20T02:07:47.947Z,3.97
2018-09-20T02:10:17.119Z,5.27
2018-09-20T02:12:46.214Z,4.63
2018-09-20T02:15:15.291Z,4.43
2018-09-20T02:17:44.364Z,3.70
2018-09-20T02:20:13.547Z,4.20
2018-09-20T02:22:42.691Z,3.87
2018-09-20T02:25:11.824Z,6.03
2018-09-20T02:27:40.897Z,4.37
2018-09-20T02:30:10.118Z,4.30
2018-09-20T02:32:39.209Z,3.30
2018-09-20T02:35:08.303Z,4.27
2018-09-20T02:37:37.415Z,5.27
2018-09-20T02:40:06.576Z,3.37
2018-09-20T02:42:35.672Z,6.93
2018-09-20T02:45:05.000Z,4.17
2018-09-20T02:47:34.028Z,4.03
2018-09-20T02:50:03.162Z,3.57
2018-09-20T02:52:32.288Z,5.30
2018-09-20T02:55:01.354Z,4.77
2018-09-20T02:57:30.481Z,5.73
2018-09-20T02:59:59.578Z,4.70
2018-09-20T03:02:28.877Z,4.27
2018-09-20T03:04:58.226Z,2.37
2018-09-20T03:07:27.379Z,3.83
2018-09-20T03:09:56.416Z,4.80
2018-09-20T03:12:25.963Z,3.97
2018-09-20T03:14:55.086Z,3.80
2018-09-20T03:17:24.348Z,3.47
2018-09-20T03:19:53.465Z,5.07
2018-09-20T03:22:22.531Z,4.43
2018-09-20T03:24:51.583Z,3.47
2018-09-20T03:27:20.797Z,3.73
2018-09-20T03:29:50.041Z,3.60
2018-09-20T03:32:19.262Z,3.70
2018-09-20T03:34:48.662Z,4.20
2018-09-20T03:37:17.758Z,2.77
2018-09-20T03:39:46.832Z,3.70
2018-09-20T03:42:15.928Z,4.20
2018-09-20T03:44:45.030Z,4.97
2018-09-20T03:47:14.316Z,4.37
2018-09-20T03:49:43.436Z,5.07
2018-09-20T03:52:12.502Z,7.23
2018-09-20T03:54:41.617Z,3.47
2018-09-20T03:57:10.728Z,4.80
2018-09-20T03:59:39.831Z,6.67
2018-09-20T04:02:08.941Z,3.07
2018-09-20T04:04:38.363Z,3.33
2018-09-20T04:07:07.625Z,4.67
2018-09-20T04:09:36.731Z,2.90
2018-09-20T04:12:05.985Z,5.83
2018-09-20T04:14:34.996Z,4.40
2018-09-20T04:17:03.987Z,4.23
2018-09-20T04:19:33.643Z,4.20
2018-09-20T04:22:03.018Z,3.63
2018-09-20T04:24:32.114Z,3.67
2018-09-20T04:27:01.210Z,5.20
2018-09-20T04:29:30.275Z,5.90
2018-09-20T04:32:04.908Z,5.17
2018-09-20T04:34:33.997Z,4.73
2018-09-20T04:37:03.122Z,5.07
2018-09-20T04:39:32.104Z,4.97
2018-09-20T04:42:01.369Z,3.83
2018-09-20T04:44:30.514Z,3.80
2018-09-20T04:46:59.527Z,4.70
2018-09-20T04:49:28.604Z,4.43
2018-09-20T04:51:57.676Z,3.70
2018-09-20T04:54:26.802Z,4.43
2018-09-20T04:57:01.509Z,6.20
2018-09-20T04:59:30.618Z,5.97
2018-09-20T05:01:59.714Z,4.93
2018-09-20T05:04:28.836Z,4.47
2018-09-20T05:06:57.878Z,5.10
2018-09-20T05:09:27.070Z,5.30
2018-09-20T05:11:56.278Z,4.37
2018-09-20T05:14:25.361Z,4.03
2018-09-20T05:16:54.487Z,6.17
2018-09-20T05:19:23.592Z,5.53
2018-09-20T05:21:58.217Z,3.40
2018-09-20T05:24:32.608Z,5.03
2018-09-20T05:27:01.836Z,5.30
2018-09-20T05:29:30.918Z,5.37
2018-09-20T05:32:00.008Z,4.70
2018-09-20T05:34:29.102Z,3.07
2018-09-20T05:36:58.228Z,3.87
2018-09-20T05:39:27.304Z,3.90
2018-09-20T05:41:56.294Z,3.20
2018-09-20T05:44:25.381Z,3.37
2018-09-20T05:46:54.509Z,4.70
2018-09-20T05:49:23.677Z,4.47
2018-09-20T05:51:52.780Z,4.07
2018-09-20T05:54:21.864Z,4.20
2018-09-20T05:56:50.984Z,2.87
2018-09-20T05:59:20.312Z,5.67
2018-09-20T06:01:49.605Z,5.50
2018-09-20T06:04:18.713Z,4.17
2018-09-20T06:06:47.988Z,3.07
2018-09-20T06:09:17.077Z,5.37
2018-09-20T06:11:46.178Z,4.67
2018-09-20T06:14:15.266Z,6.13
2018-09-20T06:16:44.360Z,3.60
2018-09-20T06:19:13.431Z,6.43
2018-09-20T06:21:42.579Z,2.57
2018-09-20T06:24:11.941Z,3.83
2018-09-20T06:26:41.063Z,3.60
2018-09-20T06:29:10.200Z,6.73
2018-09-20T06:31:39.347Z,3.37
2018-09-20T06:34:08.431Z,7.43
2018-09-20T06:36:37.522Z,3.90
2018-09-20T06:39:09.148Z,3.77
2018-09-20T06:41:38.540Z,5.27
2018-09-20T06:44:07.665Z,4.00
2018-09-20T06:46:36.684Z,4.27
2018-09-20T06:49:05.883Z,3.37
2018-09-20T06:51:35.443Z,3.60
2018-09-20T06:54:04.436Z,4.57
2018-09-20T06:56:33.578Z,5.37
2018-09-20T06:59:02.897Z,4.47
2018-09-20T07:01:32.191Z,6.90
2018-09-20T07:04:01.441Z,3.37
2018-09-20T07:06:30.432Z,6.83
2018-09-20T07:08:59.597Z,4.17
2018-09-20T07:11:28.888Z,3.37
2018-09-20T07:13:58.055Z,6.00
2018-09-20T07:16:27.152Z,5.90
2018-09-20T07:18:56.277Z,4.57
2018-09-20T07:21:25.470Z,3.73
2018-09-20T07:23:54.660Z,6.00
2018-09-20T07:26:23.773Z,5.90
2018-09-20T07:28:52.851Z,6.27
2018-09-20T07:31:22.040Z,4.37
2018-09-20T07:33:51.260Z,7.97
2018-09-20T07:36:20.358Z,8.57
2018-09-20T07:38:49.440Z,4.10
2018-09-20T07:41:18.535Z,3.63
2018-09-20T07:43:47.661Z,4.47
2018-09-20T07:46:16.715Z,4.93
2018-09-20T07:48:45.782Z,7.00
2018-09-20T07:51:14.863Z,8.33
2018-09-20T07:53:44.079Z,5.20
2018-09-20T07:56:13.282Z,4.57
2018-09-20T07:58:42.412Z,9.57
2018-09-20T08:01:11.520Z,8.13
2018-09-20T08:03:41.433Z,6.43
2018-09-20T08:06:10.533Z,5.70
2018-09-20T08:08:39.705Z,5.37
2018-09-20T08:11:08.848Z,4.57
2018-09-20T08:13:37.995Z,4.73
2018-09-20T08:16:07.152Z,4.13
2018-09-20T08:18:36.417Z,4.77
2018-09-20T08:21:05.699Z,3.60
2018-09-20T08:23:34.799Z,4.97
2018-09-20T08:26:04.015Z,5.03
2018-09-20T08:28:33.112Z,10.43
2018-09-20T08:31:02.240Z,6.77
2018-09-20T08:33:31.403Z,4.37
2018-09-20T08:36:00.517Z,3.33
2018-09-20T08:38:29.707Z,6.47
2018-09-20T08:40:58.897Z,3.97
2018-09-20T08:43:27.963Z,4.70
2018-09-20T08:45:57.080Z,4.27
2018-09-20T08:48:26.384Z,4.43
2018-09-20T08:50:55.511Z,4.80
2018-09-20T08:53:24.784Z,4.60
2018-09-20T08:55:53.882Z,5.73
2018-09-20T08:58:22.982Z,4.57
2018-09-20T09:00:52.284Z,5.00
2018-09-20T09:03:21.440Z,3.90
2018-09-20T09:05:50.573Z,7.83
2018-09-20T09:08:19.568Z,4.33
2018-09-20T09:10:48.656Z,9.70
2018-09-20T09:13:17.731Z,8.30
2018-09-20T09:15:46.861Z,5.97
2018-09-20T09:18:15.903Z,6.63
2018-09-20T09:20:45.223Z,8.20
2018-09-20T09:23:14.337Z,7.30
2018-09-20T09:25:43.522Z,8.10
2018-09-20T09:28:12.584Z,5.40
2018-09-20T09:30:41.729Z,6.90
2018-09-20T09:33:10.815Z,9.77
2018-09-20T09:35:39.875Z,5.33
2018-09-20T09:38:08.846Z,7.97
2018-09-20T09:40:37.996Z,6.07
2018-09-20T09:43:07.119Z,7.13
2018-09-20T09:45:36.412Z,6.20
2018-09-20T09:48:05.530Z,6.27
2018-09-20T09:50:34.758Z,7.10
2018-09-20T09:53:03.823Z,6.33
2018-09-20T09:55:32.907Z,6.60
2018-09-20T09:58:02.106Z,6.67
2018-09-20T10:00:35.897Z,5.53
2018-09-20T10:03:04.987Z,6.87
2018-09-20T10:05:34.039Z,7.43
2018-09-20T10:08:03.163Z,6.30
2018-09-20T10:10:32.231Z,7.87
2018-09-20T10:13:01.385Z,6.07
2018-09-20T10:15:30.481Z,6.17
2018-09-20T10:17:59.677Z,5.97
2018-09-20T10:20:28.773Z,7.83
2018-09-20T10:22:57.869Z,7.03
2018-09-20T10:25:26.943Z,8.37
2018-09-20T10:27:56.068Z,8.27
2018-09-20T10:30:25.353Z,6.70
2018-09-20T10:32:54.451Z,3.77
2018-09-20T10:35:23.619Z,5.70
2018-09-20T10:37:52.753Z,8.40
2018-09-20T10:40:21.791Z,6.97
2018-09-20T10:42:50.911Z,7.23
2018-09-20T10:45:19.950Z,7.67
2018-09-20T10:47:49.004Z,8.43
2018-09-20T10:50:18.122Z,5.13
2018-09-20T10:52:47.222Z,8.60
2018-09-20T10:55:16.322Z,6.57
2018-09-20T10:57:45.400Z,5.80
2018-09-20T11:00:14.483Z,9.10
2018-09-20T11:02:43.608Z,7.43
2018-09-20T11:05:12.705Z,8.30
2018-09-20T11:07:41.828Z,6.73
2018-09-20T11:10:10.927Z,4.43
2018-09-20T11:12:40.075Z,5.17
2018-09-20T11:15:09.176Z,8.43
2018-09-20T11:17:38.297Z,6.73
2018-09-20T11:20:07.455Z,5.67
2018-09-20T11:22:36.533Z,8.13
2018-09-20T11:25:05.673Z,5.17
2018-09-20T11:27:34.880Z,8.23
2018-09-20T11:30:03.944Z,7.17
2018-09-20T11:32:33.062Z,7.90
2018-09-20T11:35:02.176Z,4.73
2018-09-20T11:37:31.338Z,4.30
2018-09-20T11:40:00.424Z,5.07
2018-09-20T11:42:29.573Z,7.00
2018-09-20T11:44:58.656Z,6.77
2018-09-20T11:47:27.717Z,5.43
2018-09-20T11:49:56.827Z,4.83
2018-09-20T11:52:25.887Z,8.60
2018-09-20T11:54:55.120Z,9.57
2018-09-20T11:57:24.226Z,3.57
2018-09-20T11:59:53.328Z,7.03
2018-09-20T12:02:22.728Z,3.37
2018-09-20T12:04:51.827Z,5.80
2018-09-20T12:07:20.946Z,6.53
2018-09-20T12:09:50.025Z,6.63
2018-09-20T12:12:19.125Z,5.03
2018-09-20T12:14:48.327Z,5.93
2018-09-20T12:17:17.552Z,4.90
2018-09-20T12:19:47.705Z,6.07
2018-09-20T12:22:16.956Z,5.07
2018-09-20T12:24:46.646Z,8.47
2018-09-20T12:27:15.704Z,4.70
2018-09-20T12:29:44.824Z,6.27
2018-09-20T12:32:13.915Z,6.20
2018-09-20T12:34:43.335Z,5.03
2018-09-20T12:37:12.430Z,7.53
2018-09-20T12:39:41.491Z,4.77
2018-09-20T12:42:10.604Z,6.03
2018-09-20T12:44:39.700Z,4.90
2018-09-20T12:47:08.799Z,2.90
2018-09-20T12:49:37.902Z,3.73
2018-09-20T12:52:06.991Z,5.63
2018-09-20T12:54:36.137Z,6.87
2018-09-20T12:57:05.675Z,9.27
2018-09-20T12:59:34.789Z,4.03
2018-09-20T13:02:03.959Z,4.53
2018-09-20T13:04:33.191Z,4.80
2018-09-20T13:07:02.257Z,7.40
2018-09-20T13:09:31.333Z,4.07
2018-09-20T13:12:00.416Z,4.43
2018-09-20T13:14:29.492Z,4.77
2018-09-20T13:16:58.681Z,4.50
2018-09-20T13:19:27.755Z,4.63
2018-09-20T13:21:56.848Z,5.97
2018-09-20T13:24:25.959Z,4.67
2018-09-20T13:26:55.060Z,5.77
2018-09-20T13:29:24.158Z,10.17
2018-09-20T13:31:53.251Z,22.90
2018-09-20T13:34:22.520Z,37.33
2018-09-20T13:36:51.647Z,38.27
2018-09-20T13:39:20.731Z,37.77
2018-09-20T13:41:50.055Z,38.80
2018-09-20T13:44:19.239Z,42.80
2018-09-20T13:46:48.316Z,58.90
2018-09-20T13:49:17.443Z,55.80
2018-09-20T13:51:46.507Z,49.37
2018-09-20T13:54:15.631Z,39.60
2018-09-20T13:56:44.699Z,35.40
2018-09-20T13:59:13.821Z,32.63
2018-09-20T14:01:42.910Z,29.33
2018-09-20T14:04:11.987Z,28.67
2018-09-20T14:06:41.079Z,25.00
2018-09-20T14:09:11.591Z,23.23
2018-09-20T14:11:40.980Z,24.47
2018-09-20T14:14:10.120Z,17.53
2018-09-20T14:16:39.233Z,22.47
2018-09-20T14:19:08.347Z,26.67
2018-09-20T14:21:37.602Z,17.43
2018-09-20T14:24:06.839Z,18.73
2018-09-20T14:26:36.021Z,16.70
2018-09-20T14:29:05.432Z,19.50
2018-09-20T14:31:35.552Z,17.00
2018-09-20T14:34:04.630Z,16.87
2018-09-20T14:36:33.756Z,22.47
2018-09-20T14:39:03.554Z,14.57
2018-09-20T14:41:32.652Z,14.47
2018-09-20T14:44:01.687Z,15.80
2018-09-20T14:46:30.788Z,11.57
2018-09-20T14:48:59.922Z,13.07
2018-09-20T14:51:29.018Z,14.60
2018-09-20T14:53:58.113Z,15.20
2018-09-20T14:56:27.185Z,13.50
2018-09-20T14:58:56.425Z,11.67
2018-09-20T15:01:25.497Z,15.53
2018-09-20T15:03:54.795Z,14.33
2018-09-20T15:06:23.956Z,14.97
2018-09-20T15:08:53.095Z,12.70
2018-09-20T15:11:22.172Z,13.20
2018-09-20T15:13:51.308Z,10.37
2018-09-20T15:16:20.404Z,10.57
2018-09-20T15:18:49.467Z,12.63
2018-09-20T15:21:18.685Z,17.83
2018-09-20T15:23:47.743Z,12.43
2018-09-20T15:26:16.909Z,10.13
2018-09-20T15:28:46.089Z,9.50
2018-09-20T15:31:15.187Z,12.93
2018-09-20T15:33:44.280Z,12.40
2018-09-20T15:36:13.366Z,10.60
2018-09-20T15:38:42.453Z,12.10
2018-09-20T15:41:11.752Z,10.73
2018-09-20T15:43:40.856Z,12.80
2018-09-20T15:46:09.964Z,14.67
2018-09-20T15:48:39.040Z,10.10
2018-09-20T15:51:08.449Z,13.87
2018-09-20T15:53:37.587Z,8.37
2018-09-20T15:56:06.670Z,10.77
2018-09-20T15:58:35.744Z,8.43
2018-09-20T16:01:04.845Z,8.33
2018-09-20T16:03:33.943Z,8.93
2018-09-20T16:06:03.068Z,11.97
2018-09-20T16:08:32.374Z,8.90
2018-09-20T16:11:01.437Z,8.70
2018-09-20T16:13:30.513Z,9.47
2018-09-20T16:15:59.659Z,10.57
2018-09-20T16:18:28.811Z,10.40
2018-09-20T16:20:57.927Z,10.50
2018-09-20T16:23:27.001Z,9.27
2018-09-20T16:25:56.422Z,9.87
2018-09-20T16:28:36.593Z,7.27
2018-09-20T16:31:14.066Z,10.87
2018-09-20T16:35:59.379Z,8.67
2018-09-20T16:38:35.286Z,7.33
2018-09-20T16:41:06.303Z,10.43
2018-09-20T16:43:35.371Z,6.40
2018-09-20T16:46:04.654Z,7.63
2018-09-20T16:48:33.723Z,8.60
2018-09-20T16:51:02.947Z,7.00
2018-09-20T16:53:32.144Z,6.33
2018-09-20T16:56:01.317Z,5.70
2018-09-20T16:58:30.502Z,7.93
2018-09-20T17:00:59.636Z,8.63
2018-09-20T17:03:28.702Z,11.70
2018-09-20T17:05:57.887Z,8.63
2018-09-20T17:08:27.049Z,7.17
2018-09-20T17:10:56.329Z,9.27
2018-09-20T17:13:25.405Z,5.67
2018-09-20T17:15:54.522Z,8.77
2018-09-20T17:18:23.716Z,9.50
2018-09-20T17:20:52.918Z,7.80
2018-09-20T17:23:22.122Z,6.80
2018-09-20T17:25:51.279Z,6.23
2018-09-20T17:28:20.485Z,6.70
2018-09-20T17:30:49.858Z,10.17
2018-09-20T17:33:18.999Z,9.83
2018-09-20T17:35:48.683Z,3.10
2018-09-20T17:38:19.167Z,9.13
2018-09-20T17:40:50.898Z,6.70
2018-09-20T17:43:23.167Z,5.57
2018-09-20T17:45:52.259Z,5.87
2018-09-20T17:48:21.355Z,7.73
2018-09-20T17:50:50.899Z,6.60
2018-09-20T17:53:20.599Z,7.43
2018-09-20T17:55:50.385Z,6.57
2018-09-20T17:58:20.291Z,7.57
2018-09-20T18:00:49.437Z,6.60
2018-09-20T18:03:18.559Z,10.47
2018-09-20T18:05:47.838Z,8.20
2018-09-20T18:08:17.028Z,4.93
2018-09-20T18:10:46.242Z,8.13
2018-09-20T18:13:15.405Z,9.13
2018-09-20T18:15:44.614Z,9.03
2018-09-20T18:18:14.174Z,7.63
2018-09-20T18:20:43.860Z,4.37
2018-09-20T18:23:13.528Z,7.53
2018-09-20T18:25:43.052Z,6.47
2018-09-20T18:28:12.458Z,6.83
2018-09-20T18:30:41.951Z,5.90
2018-09-20T18:33:11.331Z,8.67
2018-09-20T18:35:40.643Z,7.23
2018-09-20T18:38:09.716Z,6.50
2018-09-20T18:40:38.861Z,5.57
2018-09-20T18:43:08.006Z,5.87
2018-09-20T18:45:37.127Z,12.57
2018-09-20T18:48:06.224Z,4.63
2018-09-20T18:50:35.320Z,8.10
2018-09-20T18:53:04.484Z,4.03
2018-09-20T18:55:33.713Z,6.33
2018-09-20T18:58:03.028Z,6.03
2018-09-20T19:00:32.109Z,4.83
2018-09-20T19:03:01.188Z,8.80
2018-09-20T19:05:30.283Z,6.03
2018-09-20T19:07:59.386Z,5.37
2018-09-20T19:10:28.514Z,5.53
2018-09-20T19:12:57.692Z,12.43
2018-09-20T19:15:27.009Z,6.80
2018-09-20T19:17:56.178Z,5.07
2018-09-20T19:20:25.397Z,6.30
2018-09-20T19:22:54.484Z,3.20
2018-09-20T19:25:23.572Z,6.00
2018-09-20T19:27:52.653Z,4.67
2018-09-20T19:30:21.786Z,7.43
2018-09-20T19:32:50.862Z,4.77
2018-09-20T19:35:20.142Z,6.13
2018-09-20T19:37:49.370Z,5.70
2018-09-20T19:40:18.546Z,7.17
2018-09-20T19:42:47.662Z,4.43
2018-09-20T19:45:17.023Z,4.90
2018-09-20T19:47:46.301Z,4.40
2018-09-20T19:50:15.474Z,5.13
2018-09-20T19:52:44.648Z,4.83
2018-09-20T19:55:13.866Z,5.90
2018-09-20T19:57:42.957Z,3.70
2018-09-20T20:00:12.044Z,5.43
2018-09-20T20:02:41.162Z,4.30
2018-09-20T20:05:10.270Z,5.97
2018-09-20T20:07:39.469Z,7.20
2018-09-20T20:10:08.636Z,4.43
2018-09-20T20:12:37.819Z,5.47
2018-09-20T20:15:06.936Z,6.03
2018-09-20T20:17:36.025Z,5.30
2018-09-20T20:20:05.220Z,3.93
2018-09-20T20:22:34.403Z,4.20
2018-09-20T20:25:03.526Z,6.23
2018-09-20T20:27:32.710Z,6.40
2018-09-20T20:30:01.839Z,4.67
2018-09-20T20:32:31.129Z,6.50
2018-09-20T20:35:00.488Z,5.43
2018-09-20T20:37:29.619Z,5.53
2018-09-20T20:39:58.712Z,6.87
2018-09-20T20:42:27.895Z,4.53
2018-09-20T20:44:57.031Z,5.60
2018-09-20T20:47:26.294Z,4.83
2018-09-20T20:49:55.506Z,5.53
2018-09-20T20:52:59.259Z,5.30
2018-09-20T20:55:28.649Z,3.80
2018-09-20T20:57:57.815Z,5.70
2018-09-20T21:00:26.901Z,4.80
2018-09-20T21:02:56.109Z,5.93
2018-09-20T21:05:25.175Z,3.27
2018-09-20T21:07:54.824Z,6.93
2018-09-20T21:10:23.888Z,6.73
2018-09-20T21:12:53.008Z,3.57
2018-09-20T21:15:22.072Z,5.30
2018-09-20T21:17:51.167Z,4.53
2018-09-20T21:20:20.259Z,6.67
2018-09-20T21:22:49.325Z,7.80
2018-09-20T21:25:18.476Z,5.13
2018-09-20T21:27:47.607Z,3.67
2018-09-20T21:30:16.823Z,6.73
2018-09-20T21:32:45.877Z,4.77
2018-09-20T21:35:15.139Z,8.40
2018-09-20T21:37:44.382Z,3.77
2018-09-20T21:40:13.577Z,3.70
2018-09-20T21:42:42.672Z,3.90
2018-09-20T21:45:11.727Z,6.07
2018-09-20T21:47:40.850Z,6.10
2018-09-20T21:50:09.967Z,4.43
2018-09-20T21:52:39.022Z,4.27
2018-09-20T21:55:08.156Z,4.40
2018-09-20T21:57:37.228Z,5.37
2018-09-20T22:00:07.669Z,6.27
2018-09-20T22:02:42.124Z,3.30
2018-09-20T22:05:11.189Z,2.90
2018-09-20T22:07:40.282Z,3.60
2018-09-20T22:10:09.383Z,5.03
2018-09-20T22:12:38.476Z,5.63
2018-09-20T22:15:11.702Z,3.83
2018-09-20T22:17:40.855Z,6.60
2018-09-20T22:20:10.325Z,5.43
2018-09-20T22:22:39.376Z,5.17
2018-09-20T22:25:08.437Z,9.03
2018-09-20T22:27:37.566Z,4.53
2018-09-20T22:30:06.833Z,3.80
2018-09-20T22:32:35.904Z,5.03
2018-09-20T22:35:05.463Z,4.83
2018-09-20T22:37:34.866Z,3.43
2018-09-20T22:40:04.620Z,3.00
2018-09-20T22:42:33.751Z,4.90
2018-09-20T22:45:03.387Z,4.83
2018-09-20T22:47:33.128Z,9.33
2018-09-20T22:50:02.277Z,3.57
2018-09-20T22:52:31.466Z,5.67
2018-09-20T22:55:00.559Z,4.90
2018-09-20T22:57:29.628Z,4.37
2018-09-20T22:59:58.774Z,4.27
2018-09-20T23:02:27.861Z,3.60
2018-09-20T23:04:56.995Z,3.03
2018-09-20T23:07:26.126Z,8.43
2018-09-20T23:09:55.673Z,2.90
2018-09-20T23:12:24.880Z,2.30
2018-09-20T23:14:53.919Z,5.60
2018-09-20T23:17:23.059Z,5.20
2018-09-20T23:19:52.135Z,4.13
2018-09-20T23:22:21.221Z,2.73
2018-09-20T23:24:50.347Z,4.07
2018-09-20T23:27:19.429Z,2.93
2018-09-20T23:29:48.542Z,2.83
2018-09-20T23:32:17.595Z,5.83
2018-09-20T23:34:46.701Z,3.40
2018-09-20T23:37:15.791Z,4.70
2018-09-20T23:39:44.835Z,2.33
2018-09-20T23:42:13.880Z,4.00
2018-09-20T23:44:42.943Z,3.53
2018-09-20T23:47:12.064Z,3.30
2018-09-20T23:49:41.185Z,3.77
2018-09-20T23:52:10.283Z,4.97
2018-09-20T23:54:39.381Z,4.20
2018-09-20T23:57:08.777Z,3.40
2018-09-20T23:59:37.875Z,4.10
